createdAt,value
2022-10-01T00:02:08.931Z,4.38
2022-10-01T00:04:41.401Z,4.60
2022-10-01T00:07:15.457Z,4.57
2022-10-01T00:09:44.062Z,4.64
2022-10-01T00:12:16.093Z,4.63
2022-10-01T00:14:46.673Z,4.57
2022-10-01T00:17:16.535Z,4.44
2022-10-01T00:19:46.634Z,4.54
2022-10-01T00:22:15.183Z,4.46
2022-10-01T00:24:44.221Z,4.36
2022-10-01T00:27:13.112Z,4.37
2022-10-01T00:29:45.871Z,4.43
2022-10-01T00:32:15.432Z,4.37
2022-10-01T00:34:45.719Z,4.33
2022-10-01T00:37:16.174Z,4.25
2022-10-01T00:39:44.518Z,4.16
2022-10-01T00:42:18.765Z,4.14
2022-10-01T00:44:47.505Z,4.16
2022-10-01T00:47:27.168Z,4.26
2022-10-01T00:49:59.412Z,4.15
2022-10-01T00:52:32.052Z,4.01
2022-10-01T00:55:03.906Z,4.10
2022-10-01T00:57:32.461Z,4.07
2022-10-01T01:00:02.793Z,3.93
2022-10-01T01:02:31.165Z,4.06
2022-10-01T01:04:59.869Z,4.06
2022-10-01T01:07:29.791Z,4.01
2022-10-01T01:09:58.260Z,4.04
2022-10-01T01:12:37.883Z,4.00
2022-10-01T01:15:13.256Z,3.95
2022-10-01T01:17:44.629Z,4.11
2022-10-01T01:20:20.601Z,4.14
2022-10-01T01:22:56.287Z,4.19
2022-10-01T01:25:29.199Z,4.17
2022-10-01T01:28:08.591Z,4.08
2022-10-01T01:30:40.494Z,4.27
2022-10-01T01:33:12.186Z,4.41
2022-10-01T01:35:44.427Z,4.44
2022-10-01T01:38:15.085Z,4.31
2022-10-01T01:40:44.017Z,4.33
2022-10-01T01:43:17.840Z,4.32
2022-10-01T01:45:46.329Z,4.28
2022-10-01T01:48:14.861Z,4.28
2022-10-01T01:50:47.161Z,4.22
2022-10-01T01:53:15.856Z,4.25
2022-10-01T01:55:45.457Z,4.18
2022-10-01T01:58:16.348Z,4.24
2022-10-01T02:00:44.880Z,4.19
2022-10-01T02:03:14.075Z,4.24
2022-10-01T02:05:44.671Z,4.25
2022-10-01T02:08:34.077Z,4.25
2022-10-01T02:11:23.345Z,4.28
2022-10-01T02:14:01.839Z,4.26
2022-10-01T02:16:33.312Z,4.30
2022-10-01T02:19:03.593Z,4.30
2022-10-01T02:21:34.737Z,4.37
2022-10-01T02:24:06.501Z,4.39
2022-10-01T02:26:35.337Z,4.33
2022-10-01T02:29:07.187Z,4.28
2022-10-01T02:31:36.335Z,4.37
2022-10-01T02:34:09.695Z,4.35
2022-10-01T02:36:42.981Z,4.42
2022-10-01T02:39:11.560Z,4.37
2022-10-01T02:41:41.805Z,4.40
2022-10-01T02:44:14.765Z,4.36
2022-10-01T02:46:45.534Z,4.41
2022-10-01T02:49:15.531Z,4.42
2022-10-01T02:51:48.703Z,4.45
2022-10-01T02:54:20.483Z,4.43
2022-10-01T02:57:06.542Z,4.45
2022-10-01T02:59:38.063Z,4.52
2022-10-01T03:02:06.968Z,4.64
2022-10-01T03:04:35.815Z,4.67
2022-10-01T03:07:04.726Z,4.60
2022-10-01T03:09:34.837Z,4.71
2022-10-01T03:12:03.671Z,4.65
2022-10-01T03:14:33.270Z,4.73
2022-10-01T03:17:03.631Z,4.77
2022-10-01T03:19:32.247Z,4.79
2022-10-01T03:22:01.480Z,4.80
2022-10-01T03:24:31.576Z,4.81
2022-10-01T03:27:00.589Z,4.80
2022-10-01T03:29:29.168Z,4.68
2022-10-01T03:31:58.727Z,4.79
2022-10-01T03:34:29.098Z,4.77
2022-10-01T03:36:59.051Z,4.78
2022-10-01T03:39:28.457Z,4.77
2022-10-01T03:41:57.004Z,4.81
2022-10-01T03:44:25.899Z,4.79
2022-10-01T03:46:54.804Z,4.86
2022-10-01T03:49:23.299Z,4.79
2022-10-01T03:51:53.304Z,4.86
2022-10-01T03:54:22.156Z,4.88
2022-10-01T03:56:50.844Z,5.02
2022-10-01T03:59:21.439Z,5.09
2022-10-01T04:01:50.109Z,5.18
2022-10-01T04:04:18.944Z,5.20
2022-10-01T04:06:47.618Z,5.17
2022-10-01T04:09:19.710Z,5.30
2022-10-01T04:11:48.475Z,5.28
2022-10-01T04:14:17.763Z,5.36
2022-10-01T04:16:46.782Z,5.30
2022-10-01T04:19:15.368Z,5.37
2022-10-01T04:21:43.771Z,5.45
2022-10-01T04:24:12.739Z,5.40
2022-10-01T04:26:43.187Z,5.51
2022-10-01T04:29:12.334Z,5.53
2022-10-01T04:31:41.401Z,5.57
2022-10-01T04:34:10.149Z,5.55
2022-10-01T04:36:38.863Z,5.50
2022-10-01T04:39:07.338Z,5.58
2022-10-01T04:41:35.896Z,5.59
2022-10-01T04:44:06.977Z,5.60
2022-10-01T04:46:35.841Z,5.57
2022-10-01T04:49:04.131Z,5.61
2022-10-01T04:51:32.790Z,5.56
2022-10-01T04:54:01.618Z,5.72
2022-10-01T04:56:30.522Z,5.63
2022-10-01T04:58:59.205Z,5.73
2022-10-01T05:01:31.670Z,5.76
2022-10-01T05:04:01.766Z,5.76
2022-10-01T05:06:30.429Z,5.77
2022-10-01T05:08:59.830Z,5.74
2022-10-01T05:11:28.176Z,5.70
2022-10-01T05:13:56.566Z,5.67
2022-10-01T05:16:24.886Z,5.63
2022-10-01T05:18:55.010Z,5.66
2022-10-01T05:21:23.593Z,5.61
2022-10-01T05:23:52.974Z,5.68
2022-10-01T05:26:21.290Z,5.62
2022-10-01T05:28:49.654Z,5.66
2022-10-01T05:31:19.087Z,5.59
2022-10-01T05:33:48.638Z,5.64
2022-10-01T05:36:18.635Z,5.69
2022-10-01T05:38:49.305Z,5.74
2022-10-01T05:41:17.576Z,5.74
2022-10-01T05:43:46.574Z,5.77
2022-10-01T05:46:19.062Z,5.75
2022-10-01T05:48:50.412Z,5.89
2022-10-01T05:51:20.733Z,5.94
2022-10-01T05:53:50.580Z,5.95
2022-10-01T05:56:18.927Z,5.99
2022-10-01T05:58:48.103Z,6.07
2022-10-01T06:01:17.283Z,6.12
2022-10-01T06:03:45.518Z,6.13
2022-10-01T06:06:14.106Z,6.32
2022-10-01T06:08:46.934Z,6.38
2022-10-01T06:11:15.572Z,6.41
2022-10-01T06:13:45.189Z,6.54
2022-10-01T06:16:13.554Z,6.69
2022-10-01T06:18:42.364Z,6.74
2022-10-01T06:21:10.964Z,6.78
2022-10-01T06:23:39.384Z,6.86
2022-10-01T06:26:09.779Z,6.87
2022-10-01T06:28:40.294Z,6.95
2022-10-01T06:31:09.273Z,6.95
2022-10-01T06:33:37.726Z,7.01
2022-10-01T06:36:06.900Z,7.02
2022-10-01T06:38:35.284Z,6.97
2022-10-01T06:41:04.274Z,7.04
2022-10-01T06:43:34.285Z,7.19
2022-10-01T06:46:04.359Z,7.28
2022-10-01T06:48:33.131Z,7.31
2022-10-01T06:51:01.373Z,7.41
2022-10-01T06:53:29.558Z,7.44
2022-10-01T06:55:58.346Z,7.52
2022-10-01T06:58:27.747Z,7.51
2022-10-01T07:01:01.627Z,7.66
2022-10-01T07:03:30.264Z,7.55
2022-10-01T07:06:03.253Z,7.62
2022-10-01T07:08:31.400Z,7.75
2022-10-01T07:11:03.835Z,7.76
2022-10-01T07:13:32.260Z,7.65
2022-10-01T07:16:04.385Z,7.64
2022-10-01T07:18:33.117Z,7.70
2022-10-01T07:21:02.223Z,7.72
2022-10-01T07:23:31.039Z,7.78
2022-10-01T07:25:59.944Z,7.84
2022-10-01T07:28:28.578Z,7.93
2022-10-01T07:31:02.426Z,7.90
2022-10-01T07:33:30.787Z,7.94
2022-10-01T07:36:01.829Z,7.95
2022-10-01T07:38:30.077Z,7.92
2022-10-01T07:40:59.087Z,8.08
2022-10-01T07:43:27.519Z,7.91
2022-10-01T07:45:58.565Z,8.00
2022-10-01T07:48:31.356Z,8.05
2022-10-01T07:50:59.836Z,8.04
2022-10-01T07:53:28.297Z,8.11
2022-10-01T07:55:57.011Z,8.14
2022-10-01T07:58:25.466Z,8.13
2022-10-01T08:00:58.906Z,8.10
2022-10-01T08:03:29.600Z,8.10
2022-10-01T08:05:57.922Z,8.11
2022-10-01T08:08:26.095Z,7.90
2022-10-01T08:10:55.267Z,8.01
2022-10-01T08:13:25.822Z,7.90
2022-10-01T08:15:55.236Z,8.01
2022-10-01T08:18:24.338Z,7.94
2022-10-01T08:20:55.398Z,7.87
2022-10-01T08:23:28.861Z,7.90
2022-10-01T08:26:00.820Z,7.83
2022-10-01T08:28:30.387Z,7.87
2022-10-01T08:30:58.808Z,7.84
2022-10-01T08:33:27.408Z,7.88
2022-10-01T08:35:57.236Z,7.85
2022-10-01T08:38:26.134Z,7.85
2022-10-01T08:40:54.846Z,7.90
2022-10-01T08:43:30.681Z,7.84
2022-10-01T08:46:01.166Z,7.85
2022-10-01T08:48:40.153Z,7.83
2022-10-01T08:51:13.815Z,7.81
2022-10-01T08:53:45.602Z,7.75
2022-10-01T08:56:23.417Z,7.86
2022-10-01T08:58:54.566Z,7.86
2022-10-01T09:01:24.700Z,7.88
2022-10-01T09:03:54.504Z,7.78
2022-10-01T09:06:26.941Z,7.82
2022-10-01T09:09:04.780Z,7.86
2022-10-01T09:11:41.436Z,7.90
2022-10-01T09:14:25.743Z,7.96
2022-10-01T09:16:58.918Z,8.00
2022-10-01T09:19:40.788Z,8.04
2022-10-01T09:22:13.461Z,8.04
2022-10-01T09:24:47.268Z,8.04
2022-10-01T09:27:19.133Z,8.10
2022-10-01T09:29:53.038Z,8.14
2022-10-01T09:32:22.852Z,8.08
2022-10-01T09:34:51.339Z,8.16
2022-10-01T09:37:30.151Z,8.29
2022-10-01T09:40:08.328Z,8.19
2022-10-01T09:42:36.460Z,8.27
2022-10-01T09:45:05.251Z,8.35
2022-10-01T09:47:33.918Z,8.20
2022-10-01T09:50:02.326Z,8.33
2022-10-01T09:52:38.565Z,8.38
2022-10-01T09:55:08.795Z,8.39
2022-10-01T09:57:39.943Z,8.38
2022-10-01T10:00:10.513Z,8.35
2022-10-01T10:02:46.054Z,8.36
2022-10-01T10:05:18.865Z,8.23
2022-10-01T10:07:50.778Z,8.21
2022-10-01T10:10:25.351Z,8.18
2022-10-01T10:12:57.069Z,8.17
2022-10-01T10:15:26.508Z,8.41
2022-10-01T10:17:55.833Z,8.34
2022-10-01T10:20:31.173Z,8.38
2022-10-01T10:23:11.266Z,8.34
2022-10-01T10:25:39.798Z,8.34
2022-10-01T10:28:20.069Z,8.39
2022-10-01T10:30:48.695Z,8.35
2022-10-01T10:33:19.229Z,8.49
2022-10-01T10:35:47.810Z,8.52
2022-10-01T10:38:22.409Z,8.58
2022-10-01T10:40:51.648Z,8.65
2022-10-01T10:43:22.926Z,8.84
2022-10-01T10:45:56.483Z,8.98
2022-10-01T10:48:25.956Z,9.17
2022-10-01T10:51:00.223Z,9.13
2022-10-01T10:53:33.994Z,9.08
2022-10-01T10:56:03.449Z,9.12
2022-10-01T10:58:33.413Z,9.04
2022-10-01T11:01:04.239Z,9.07
2022-10-01T11:03:33.254Z,9.09
2022-10-01T11:06:05.936Z,9.01
2022-10-01T11:08:37.020Z,8.98
2022-10-01T11:11:14.413Z,8.98
2022-10-01T11:14:00.044Z,8.90
2022-10-01T11:16:43.155Z,8.96
2022-10-01T11:19:24.076Z,9.00
2022-10-01T11:21:59.932Z,9.00
2022-10-01T11:24:51.203Z,8.90
2022-10-01T11:27:24.941Z,8.98
2022-10-01T11:29:59.104Z,8.98
2022-10-01T11:32:28.312Z,8.91
2022-10-01T11:35:20.545Z,8.95
2022-10-01T11:38:00.438Z,8.99
2022-10-01T11:40:35.698Z,9.04
2022-10-01T11:43:06.926Z,9.10
2022-10-01T11:45:38.579Z,9.22
2022-10-01T11:48:08.219Z,9.36
2022-10-01T11:50:39.425Z,9.43
2022-10-01T11:53:11.305Z,9.51
2022-10-01T11:56:00.205Z,9.66
2022-10-01T11:58:48.802Z,9.64
2022-10-01T12:01:20.424Z,9.71
2022-10-01T12:03:56.349Z,9.78
2022-10-01T12:06:30.500Z,9.63
2022-10-01T12:09:07.781Z,9.74
2022-10-01T12:11:42.662Z,9.76
2022-10-01T12:14:12.843Z,9.74
2022-10-01T12:16:46.089Z,9.73
2022-10-01T12:19:17.672Z,9.70
2022-10-01T12:21:49.872Z,9.79
2022-10-01T12:24:20.374Z,9.69
2022-10-01T12:26:56.903Z,9.70
2022-10-01T12:29:28.150Z,9.73
2022-10-01T12:32:00.262Z,9.84
2022-10-01T12:34:37.226Z,9.97
2022-10-01T12:37:13.256Z,10.13
2022-10-01T12:39:49.183Z,10.30
2022-10-01T12:42:39.582Z,10.36
2022-10-01T12:45:13.360Z,10.35
2022-10-01T12:47:44.963Z,10.25
2022-10-01T12:50:23.333Z,10.22
2022-10-01T12:52:58.415Z,10.20
2022-10-01T12:55:37.477Z,10.13
2022-10-01T12:58:12.827Z,10.22
2022-10-01T13:00:43.101Z,10.32
2022-10-01T13:03:38.292Z,10.31
2022-10-01T13:06:22.071Z,10.33
2022-10-01T13:08:58.745Z,10.40
2022-10-01T13:11:36.989Z,10.36
2022-10-01T13:14:07.623Z,10.30
2022-10-01T13:16:38.328Z,10.31
2022-10-01T13:19:09.436Z,10.43
2022-10-01T13:21:53.102Z,10.64
2022-10-01T13:24:27.966Z,10.85
2022-10-01T13:26:59.832Z,10.87
2022-10-01T13:29:37.787Z,10.96
2022-10-01T13:32:21.609Z,10.93
2022-10-01T13:34:49.879Z,10.82
2022-10-01T13:37:19.560Z,10.74
2022-10-01T13:39:48.020Z,10.72
2022-10-01T13:42:24.486Z,10.65
2022-10-01T13:44:56.624Z,10.55
2022-10-01T13:47:25.384Z,10.53
2022-10-01T13:49:55.737Z,10.45
2022-10-01T13:52:25.573Z,10.46
2022-10-01T13:54:54.661Z,10.52
2022-10-01T13:57:31.743Z,10.65
2022-10-01T14:00:02.439Z,10.53
2022-10-01T14:02:33.340Z,10.56
2022-10-01T14:05:24.098Z,10.63
2022-10-01T14:07:56.607Z,10.64
2022-10-01T14:10:24.934Z,10.56
2022-10-01T14:13:10.791Z,10.57
2022-10-01T14:16:02.203Z,10.64
2022-10-01T14:18:32.311Z,10.72
2022-10-01T14:21:06.422Z,10.66
2022-10-01T14:23:35.890Z,10.72
2022-10-01T14:26:07.444Z,10.58
2022-10-01T14:28:41.603Z,10.57
2022-10-01T14:31:15.536Z,10.61
2022-10-01T14:34:08.545Z,10.60
2022-10-01T14:36:37.808Z,10.67
2022-10-01T14:39:13.784Z,10.63
2022-10-01T14:41:42.014Z,10.63
2022-10-01T14:44:24.410Z,10.65
2022-10-01T14:46:55.446Z,10.67
2022-10-01T14:49:26.896Z,10.72
2022-10-01T14:51:57.746Z,10.76
2022-10-01T14:54:26.743Z,10.78
2022-10-01T14:56:57.892Z,10.79
2022-10-01T14:59:32.772Z,10.80
2022-10-01T15:02:04.652Z,10.80
2022-10-01T15:04:34.175Z,10.78
2022-10-01T15:07:11.256Z,10.95
2022-10-01T15:09:40.871Z,11.00
2022-10-01T15:12:09.392Z,11.10
2022-10-01T15:14:37.739Z,11.16
2022-10-01T15:17:07.760Z,11.19
2022-10-01T15:19:45.949Z,11.21
2022-10-01T15:22:15.394Z,11.25
2022-10-01T15:24:44.597Z,11.21
2022-10-01T15:27:13.883Z,11.18
2022-10-01T15:30:43.292Z,11.31
2022-10-01T15:33:33.663Z,11.35
2022-10-01T15:36:03.629Z,11.34
2022-10-01T15:38:32.249Z,11.35
2022-10-01T15:41:19.733Z,11.40
2022-10-01T15:43:50.050Z,11.39
2022-10-01T15:46:33.226Z,11.44
2022-10-01T15:49:26.465Z,11.40
2022-10-01T15:52:14.621Z,11.31
2022-10-01T15:54:43.576Z,11.33
2022-10-01T15:57:16.176Z,11.29
2022-10-01T15:59:44.487Z,11.25
2022-10-01T16:02:18.780Z,11.31
2022-10-01T16:04:49.113Z,11.25
2022-10-01T16:07:22.099Z,11.22
2022-10-01T16:09:54.132Z,11.35
2022-10-01T16:12:22.733Z,11.34
2022-10-01T16:14:58.044Z,11.27
2022-10-01T16:17:30.883Z,11.38
2022-10-01T16:20:01.827Z,11.32
2022-10-01T16:22:31.875Z,11.32
2022-10-01T16:25:01.122Z,11.32
2022-10-01T16:27:30.180Z,11.36
2022-10-01T16:30:04.972Z,11.32
2022-10-01T16:32:34.544Z,11.33
2022-10-01T16:35:23.332Z,11.25
2022-10-01T16:37:54.118Z,11.13
2022-10-01T16:40:24.092Z,11.14
2022-10-01T16:42:52.576Z,11.21
2022-10-01T16:45:23.183Z,11.31
2022-10-01T16:47:51.649Z,11.38
2022-10-01T16:50:22.660Z,11.25
2022-10-01T16:52:53.579Z,11.28
2022-10-01T16:55:24.179Z,11.26
2022-10-01T16:57:55.027Z,11.30
2022-10-01T17:00:24.515Z,11.36
2022-10-01T17:02:55.146Z,11.33
2022-10-01T17:05:26.772Z,11.21
2022-10-01T17:07:55.132Z,11.12
2022-10-01T17:10:24.187Z,11.15
2022-10-01T17:12:54.517Z,11.21
2022-10-01T17:15:25.867Z,11.27
2022-10-01T17:17:54.657Z,11.23
2022-10-01T17:20:24.765Z,11.22
2022-10-01T17:22:53.378Z,11.15
2022-10-01T17:25:22.687Z,11.14
2022-10-01T17:27:51.425Z,11.18
2022-10-01T17:30:19.864Z,11.20
2022-10-01T17:32:48.263Z,11.24
2022-10-01T17:35:18.473Z,11.14
2022-10-01T17:37:48.484Z,11.06
2022-10-01T17:40:18.038Z,11.18
2022-10-01T17:42:49.164Z,11.18
2022-10-01T17:45:17.927Z,11.15
2022-10-01T17:47:49.037Z,11.21
2022-10-01T17:50:18.100Z,11.22
2022-10-01T17:52:49.658Z,11.22
2022-10-01T17:55:20.086Z,11.28
2022-10-01T17:57:48.320Z,11.36
2022-10-01T18:00:18.217Z,11.35
2022-10-01T18:02:47.145Z,11.31
2022-10-01T18:05:17.791Z,11.34
2022-10-01T18:07:46.115Z,11.23
2022-10-01T18:10:16.096Z,11.37
2022-10-01T18:12:44.585Z,11.27
2022-10-01T18:15:14.171Z,11.32
2022-10-01T18:17:43.642Z,11.22
2022-10-01T18:20:21.555Z,11.25
2022-10-01T18:22:50.672Z,11.25
2022-10-01T18:25:20.519Z,11.22
2022-10-01T18:27:50.397Z,11.22
2022-10-01T18:30:21.328Z,11.15
2022-10-01T18:32:57.378Z,11.05
2022-10-01T18:35:29.682Z,11.15
2022-10-01T18:37:59.779Z,11.20
2022-10-01T18:40:31.056Z,11.10
2022-10-01T18:43:01.563Z,11.07
2022-10-01T18:45:45.748Z,11.15
2022-10-01T18:48:49.600Z,11.08
2022-10-01T18:51:22.372Z,11.09
2022-10-01T18:54:02.525Z,11.20
2022-10-01T18:56:34.332Z,11.14
2022-10-01T18:59:19.773Z,11.16
2022-10-01T19:01:54.378Z,11.21
2022-10-01T19:04:38.881Z,11.04
2022-10-01T19:07:10.704Z,11.10
2022-10-01T19:09:44.706Z,11.15
2022-10-01T19:12:19.327Z,11.12
2022-10-01T19:15:00.632Z,11.16
2022-10-01T19:17:36.369Z,11.15
2022-10-01T19:20:19.197Z,11.22
2022-10-01T19:23:03.865Z,11.26
2022-10-01T19:25:37.284Z,11.27
2022-10-01T19:28:15.403Z,11.24
2022-10-01T19:30:47.917Z,11.25
2022-10-01T19:33:16.702Z,11.23
2022-10-01T19:35:48.094Z,11.28
2022-10-01T19:38:18.715Z,11.30
2022-10-01T19:40:50.186Z,11.26
2022-10-01T19:43:22.452Z,11.32
2022-10-01T19:45:53.405Z,11.25
2022-10-01T19:48:22.894Z,11.34
2022-10-01T19:50:55.259Z,11.40
2022-10-01T19:53:26.304Z,11.30
2022-10-01T19:55:54.594Z,11.28
2022-10-01T19:58:24.956Z,11.17
2022-10-01T20:00:57.497Z,11.28
2022-10-01T20:03:32.372Z,11.20
2022-10-01T20:06:04.715Z,11.24
2022-10-01T20:08:38.970Z,11.31
2022-10-01T20:11:14.560Z,11.27
2022-10-01T20:13:52.619Z,11.36
2022-10-01T20:16:25.556Z,11.27
2022-10-01T20:18:57.662Z,11.28
2022-10-01T20:21:36.062Z,11.29
2022-10-01T20:24:08.720Z,11.26
2022-10-01T20:26:40.724Z,11.30
2022-10-01T20:29:32.901Z,11.38
2022-10-01T20:32:03.546Z,11.34
2022-10-01T20:34:37.805Z,11.37
2022-10-01T20:37:16.255Z,11.38
2022-10-01T20:39:49.114Z,11.43
2022-10-01T20:42:20.229Z,11.42
2022-10-01T20:44:51.359Z,11.39
2022-10-01T20:47:22.388Z,11.45
2022-10-01T20:49:53.734Z,11.44
2022-10-01T20:52:26.174Z,11.45
2022-10-01T20:54:57.679Z,11.48
2022-10-01T20:57:29.179Z,11.54
2022-10-01T21:00:05.289Z,11.60
2022-10-01T21:02:37.359Z,11.51
2022-10-01T21:05:09.671Z,11.49
2022-10-01T21:07:39.491Z,11.52
2022-10-01T21:10:16.574Z,11.60
2022-10-01T21:12:48.184Z,11.61
2022-10-01T21:15:18.367Z,11.49
2022-10-01T21:17:51.087Z,11.49
2022-10-01T21:20:34.357Z,11.44
2022-10-01T21:23:12.508Z,11.44
2022-10-01T21:25:47.253Z,11.47
2022-10-01T21:28:29.017Z,11.42
2022-10-01T21:31:12.815Z,11.38
2022-10-01T21:33:47.440Z,11.34
2022-10-01T21:36:19.720Z,11.32
2022-10-01T21:38:51.740Z,11.28
2022-10-01T21:41:30.099Z,11.30
2022-10-01T21:44:47.140Z,11.29
2022-10-01T21:47:18.512Z,11.20
2022-10-01T21:49:51.170Z,11.11
2022-10-01T21:52:24.973Z,11.03
2022-10-01T21:55:06.189Z,10.93
2022-10-01T21:57:57.608Z,10.94
2022-10-01T22:00:28.923Z,10.96
2022-10-01T22:03:08.779Z,10.92
2022-10-01T22:05:39.395Z,10.88
2022-10-01T22:08:21.742Z,10.72
2022-10-01T22:10:51.405Z,10.71
2022-10-01T22:13:22.774Z,10.76
2022-10-01T22:15:54.752Z,10.66
2022-10-01T22:18:36.949Z,10.62
2022-10-01T22:21:08.632Z,10.44
2022-10-01T22:23:39.434Z,10.61
2022-10-01T22:26:11.117Z,10.56
2022-10-01T22:28:42.868Z,10.47
2022-10-01T22:31:19.381Z,10.29
2022-10-01T22:33:53.011Z,10.29
2022-10-01T22:36:25.714Z,10.20
2022-10-01T22:38:55.312Z,10.21
2022-10-01T22:41:25.256Z,10.24
2022-10-01T22:43:54.768Z,10.13
2022-10-01T22:46:35.515Z,10.24
2022-10-01T22:49:12.373Z,10.27
2022-10-01T22:51:49.976Z,10.25
2022-10-01T22:54:26.849Z,10.36
2022-10-01T22:57:03.531Z,10.40
2022-10-01T22:59:36.233Z,10.39
2022-10-01T23:02:08.344Z,10.40
2022-10-01T23:04:44.981Z,10.28
2022-10-01T23:07:18.073Z,10.35
2022-10-01T23:09:50.842Z,10.26
2022-10-01T23:12:23.020Z,10.28
2022-10-01T23:14:58.015Z,10.33
2022-10-01T23:17:32.148Z,10.26
2022-10-01T23:20:14.880Z,10.19
2022-10-01T23:23:03.388Z,10.16
2022-10-01T23:25:40.462Z,10.10
2022-10-01T23:28:15.062Z,10.18
2022-10-01T23:30:52.794Z,10.12
2022-10-01T23:33:31.789Z,10.15
2022-10-01T23:36:06.652Z,10.20
2022-10-01T23:39:16.080Z,10.11
2022-10-01T23:41:46.986Z,10.16
2022-10-01T23:44:21.138Z,10.20
2022-10-01T23:46:49.826Z,10.30
2022-10-01T23:49:18.714Z,10.27
2022-10-01T23:51:51.630Z,10.19
2022-10-01T23:54:22.838Z,10.22
2022-10-01T23:56:54.104Z,10.24
2022-10-01T23:59:27.267Z,10.20
